<?xml version="1.0" encoding="utf-8"?>
<gpx xmlns:xsi="http://www.w3.org/2001/XMLSchema-instance" xmlns:xsd="http://www.w3.org/2001/XMLSchema" version="1.1" creator="Shapelink.com" xmlns="http://www.topografix.com/GPX/1/1" xmlns:gpxtpx="http://www.garmin.com/xmlschemas/TrackPointExtension/v1">
  <metadata>
    <name>Cycling 10.39 km, 2020-06-06</name>
    <desc></desc>
    <author><name>Marian Moron</name></author> 
    <time>2020-06-06T16:54:49Z</time>
  </metadata>
  <trk>
    <name>Cycling 10.39 km, 2020-06-06</name>
    <trkseg>
      <trkpt lat="51.228703369111" lon="4.448931890055">
        <ele>0</ele>
        <time>2020-06-06T16:54:49Z</time>
      </trkpt>
      <trkpt lat="51.228780901686" lon="4.448832732178">
        <ele>0</ele>
        <time>2020-06-06T16:54:54Z</time>
      </trkpt>
      <trkpt lat="51.228800515332" lon="4.448852345824">
        <ele>0</ele>
        <time>2020-06-06T16:54:56Z</time>
      </trkpt>
      <trkpt lat="51.228793474536" lon="4.448957371031">
        <ele>0</ele>
        <time>2020-06-06T16:55:00Z</time>
      </trkpt>
      <trkpt lat="51.228761455678" lon="4.448972123175">
        <ele>0</ele>
        <time>2020-06-06T16:55:02Z</time>
      </trkpt>
      <trkpt lat="51.228749637199" lon="4.448923340517">
        <ele>0</ele>
        <time>2020-06-06T16:55:04Z</time>
      </trkpt>
      <trkpt lat="51.228772603605" lon="4.448862571742">
        <ele>0</ele>
        <time>2020-06-06T16:55:06Z</time>
      </trkpt>
      <trkpt lat="51.228976116137" lon="4.448491756486">
        <ele>0</ele>
        <time>2020-06-06T16:55:28Z</time>
      </trkpt>
      <trkpt lat="51.228615694437" lon="4.44782086921">
        <ele>0</ele>
        <time>2020-06-06T16:55:53Z</time>
      </trkpt>
      <trkpt lat="51.228299780626" lon="4.447234220029">
        <ele>0</ele>
        <time>2020-06-06T16:56:11Z</time>
      </trkpt>
      <trkpt lat="51.228254518366" lon="4.447246876698">
        <ele>0</ele>
        <time>2020-06-06T16:56:13Z</time>
      </trkpt>
      <trkpt lat="51.227809690933" lon="4.44779823808">
        <ele>0</ele>
        <time>2020-06-06T16:56:34Z</time>
      </trkpt>
      <trkpt lat="51.227406437724" lon="4.448391089867">
        <ele>0</ele>
        <time>2020-06-06T16:56:53Z</time>
      </trkpt>
      <trkpt lat="51.227051967173" lon="4.449048230827">
        <ele>1.2</ele>
        <time>2020-06-06T16:57:14Z</time>
      </trkpt>
      <trkpt lat="51.226824650045" lon="4.449458021918">
        <ele>0</ele>
        <time>2020-06-06T16:57:31Z</time>
      </trkpt>
      <trkpt lat="51.226559027634" lon="4.449687434521">
        <ele>0</ele>
        <time>2020-06-06T16:57:45Z</time>
      </trkpt>
      <trkpt lat="51.226499348506" lon="4.449458524832">
        <ele>0</ele>
        <time>2020-06-06T16:57:54Z</time>
      </trkpt>
      <trkpt lat="51.226528014604" lon="4.449396498772">
        <ele>0</ele>
        <time>2020-06-06T16:57:57Z</time>
      </trkpt>
      <trkpt lat="51.226225344195" lon="4.448897272808">
        <ele>0</ele>
        <time>2020-06-06T16:58:16Z</time>
      </trkpt>
      <trkpt lat="51.22619223569" lon="4.448944462905">
        <ele>0</ele>
        <time>2020-06-06T16:58:18Z</time>
      </trkpt>
      <trkpt lat="51.225849332161" lon="4.449603615521">
        <ele>0</ele>
        <time>2020-06-06T16:58:36Z</time>
      </trkpt>
      <trkpt lat="51.225308615792" lon="4.449760273232">
        <ele>0</ele>
        <time>2020-06-06T16:58:53Z</time>
      </trkpt>
      <trkpt lat="51.224817017357" lon="4.450156820921">
        <ele>0</ele>
        <time>2020-06-06T16:59:09Z</time>
      </trkpt>
      <trkpt lat="51.224435221812" lon="4.450763838119">
        <ele>0</ele>
        <time>2020-06-06T16:59:21Z</time>
      </trkpt>
      <trkpt lat="51.22418979978" lon="4.451157452143">
        <ele>0</ele>
        <time>2020-06-06T16:59:29Z</time>
      </trkpt>
      <trkpt lat="51.223676492224" lon="4.451360210304">
        <ele>0</ele>
        <time>2020-06-06T16:59:43Z</time>
      </trkpt>
      <trkpt lat="51.223124125014" lon="4.451153428831">
        <ele>0</ele>
        <time>2020-06-06T16:59:59Z</time>
      </trkpt>
      <trkpt lat="51.222569327053" lon="4.451103388888">
        <ele>0</ele>
        <time>2020-06-06T17:00:17Z</time>
      </trkpt>
      <trkpt lat="51.222019055318" lon="4.451271613621">
        <ele>0</ele>
        <time>2020-06-06T17:00:33Z</time>
      </trkpt>
      <trkpt lat="51.221508010875" lon="4.45156087299">
        <ele>0</ele>
        <time>2020-06-06T17:00:52Z</time>
      </trkpt>
      <trkpt lat="51.220963522651" lon="4.451724236221">
        <ele>0</ele>
        <time>2020-06-06T17:01:12Z</time>
      </trkpt>
      <trkpt lat="51.220408808509" lon="4.451882402674">
        <ele>0</ele>
        <time>2020-06-06T17:01:28Z</time>
      </trkpt>
      <trkpt lat="51.219869517063" lon="4.451971502271">
        <ele>0</ele>
        <time>2020-06-06T17:01:44Z</time>
      </trkpt>
      <trkpt lat="51.219302230071" lon="4.452117766426">
        <ele>0</ele>
        <time>2020-06-06T17:01:59Z</time>
      </trkpt>
      <trkpt lat="51.218941137819" lon="4.45250299855">
        <ele>0</ele>
        <time>2020-06-06T17:02:14Z</time>
      </trkpt>
      <trkpt lat="51.219241209839" lon="4.453266505821">
        <ele>0</ele>
        <time>2020-06-06T17:02:26Z</time>
      </trkpt>
      <trkpt lat="51.219482189464" lon="4.453892466113">
        <ele>0</ele>
        <time>2020-06-06T17:02:38Z</time>
      </trkpt>
      <trkpt lat="51.219468778424" lon="4.453888275163">
        <ele>0</ele>
        <time>2020-06-06T17:03:01Z</time>
      </trkpt>
      <trkpt lat="51.21946240818" lon="4.453896573244">
        <ele>0</ele>
        <time>2020-06-06T17:03:03Z</time>
      </trkpt>
      <trkpt lat="51.219423935259" lon="4.453946194092">
        <ele>0</ele>
        <time>2020-06-06T17:03:09Z</time>
      </trkpt>
      <trkpt lat="51.21893518667" lon="4.454269819251">
        <ele>0</ele>
        <time>2020-06-06T17:03:26Z</time>
      </trkpt>
      <trkpt lat="51.218455322895" lon="4.454749012474">
        <ele>0</ele>
        <time>2020-06-06T17:03:41Z</time>
      </trkpt>
      <trkpt lat="51.218044358338" lon="4.455310013041">
        <ele>0</ele>
        <time>2020-06-06T17:03:58Z</time>
      </trkpt>
      <trkpt lat="51.218057517921" lon="4.456170247438">
        <ele>0</ele>
        <time>2020-06-06T17:04:15Z</time>
      </trkpt>
      <trkpt lat="51.218025247606" lon="4.457060489037">
        <ele>0</ele>
        <time>2020-06-06T17:04:31Z</time>
      </trkpt>
      <trkpt lat="51.217995072766" lon="4.45792441147">
        <ele>0</ele>
        <time>2020-06-06T17:04:47Z</time>
      </trkpt>
      <trkpt lat="51.21794863704" lon="4.458803253685">
        <ele>0</ele>
        <time>2020-06-06T17:05:05Z</time>
      </trkpt>
      <trkpt lat="51.217948720859" lon="4.459660554417">
        <ele>0</ele>
        <time>2020-06-06T17:05:21Z</time>
      </trkpt>
      <trkpt lat="51.217907984825" lon="4.460540821555">
        <ele>0</ele>
        <time>2020-06-06T17:05:36Z</time>
      </trkpt>
      <trkpt lat="51.217847886602" lon="4.461434583552">
        <ele>0</ele>
        <time>2020-06-06T17:05:54Z</time>
      </trkpt>
      <trkpt lat="51.217810419509" lon="4.462305379143">
        <ele>0</ele>
        <time>2020-06-06T17:06:09Z</time>
      </trkpt>
      <trkpt lat="51.217724421215" lon="4.463141054573">
        <ele>0</ele>
        <time>2020-06-06T17:06:24Z</time>
      </trkpt>
      <trkpt lat="51.217684104276" lon="4.463157399278">
        <ele>0</ele>
        <time>2020-06-06T17:06:25Z</time>
      </trkpt>
      <trkpt lat="51.217137855853" lon="4.463111550285">
        <ele>0</ele>
        <time>2020-06-06T17:06:37Z</time>
      </trkpt>
      <trkpt lat="51.216584398996" lon="4.463123452583">
        <ele>0</ele>
        <time>2020-06-06T17:06:50Z</time>
      </trkpt>
      <trkpt lat="51.216025074809" lon="4.463101324367">
        <ele>0</ele>
        <time>2020-06-06T17:07:07Z</time>
      </trkpt>
      <trkpt lat="51.215942093999" lon="4.463143150048">
        <ele>0</ele>
        <time>2020-06-06T17:07:10Z</time>
      </trkpt>
      <trkpt lat="51.215915774833" lon="4.463218335691">
        <ele>0</ele>
        <time>2020-06-06T17:07:12Z</time>
      </trkpt>
      <trkpt lat="51.21596296493" lon="4.46408594616">
        <ele>0</ele>
        <time>2020-06-06T17:07:27Z</time>
      </trkpt>
      <trkpt lat="51.215825920865" lon="4.464302702094">
        <ele>0</ele>
        <time>2020-06-06T17:07:33Z</time>
      </trkpt>
      <trkpt lat="51.215981991843" lon="4.465166037794">
        <ele>0</ele>
        <time>2020-06-06T17:07:51Z</time>
      </trkpt>
      <trkpt lat="51.216040413686" lon="4.465771713888">
        <ele>0</ele>
        <time>2020-06-06T17:08:04Z</time>
      </trkpt>
      <trkpt lat="51.215531129442" lon="4.466097769798">
        <ele>0</ele>
        <time>2020-06-06T17:08:22Z</time>
      </trkpt>
      <trkpt lat="51.215358127026" lon="4.466918022532">
        <ele>0</ele>
        <time>2020-06-06T17:08:41Z</time>
      </trkpt>
      <trkpt lat="51.215333987154" lon="4.466969655036">
        <ele>0</ele>
        <time>2020-06-06T17:08:43Z</time>
      </trkpt>
      <trkpt lat="51.214870300446" lon="4.467366454182">
        <ele>0</ele>
        <time>2020-06-06T17:09:06Z</time>
      </trkpt>
      <trkpt lat="51.214742141195" lon="4.468174469342">
        <ele>5</ele>
        <time>2020-06-06T17:09:25Z</time>
      </trkpt>
      <trkpt lat="51.215290233636" lon="4.468319560031">
        <ele>1</ele>
        <time>2020-06-06T17:09:41Z</time>
      </trkpt>
      <trkpt lat="51.215745957539" lon="4.468732620063">
        <ele>0</ele>
        <time>2020-06-06T17:10:02Z</time>
      </trkpt>
      <trkpt lat="51.216201681442" lon="4.469173088908">
        <ele>0</ele>
        <time>2020-06-06T17:10:19Z</time>
      </trkpt>
      <trkpt lat="51.216719263767" lon="4.469429826505">
        <ele>0</ele>
        <time>2020-06-06T17:10:34Z</time>
      </trkpt>
      <trkpt lat="51.217220333749" lon="4.469059262706">
        <ele>0</ele>
        <time>2020-06-06T17:10:49Z</time>
      </trkpt>
      <trkpt lat="51.217488973644" lon="4.468886344109">
        <ele>0</ele>
        <time>2020-06-06T17:10:58Z</time>
      </trkpt>
      <trkpt lat="51.217506407996" lon="4.46971606839">
        <ele>0</ele>
        <time>2020-06-06T17:11:14Z</time>
      </trkpt>
      <trkpt lat="51.217375817994" lon="4.47003877154">
        <ele>0</ele>
        <time>2020-06-06T17:11:22Z</time>
      </trkpt>
      <trkpt lat="51.216996285562" lon="4.470589546189">
        <ele>0</ele>
        <time>2020-06-06T17:11:38Z</time>
      </trkpt>
      <trkpt lat="51.216931493475" lon="4.470644615272">
        <ele>0</ele>
        <time>2020-06-06T17:11:41Z</time>
      </trkpt>
      <trkpt lat="51.216483061825" lon="4.4704360736">
        <ele>0</ele>
        <time>2020-06-06T17:11:58Z</time>
      </trkpt>
      <trkpt lat="51.216415503711" lon="4.471305528087">
        <ele>0</ele>
        <time>2020-06-06T17:12:20Z</time>
      </trkpt>
      <trkpt lat="51.216377533704" lon="4.471704338889">
        <ele>0</ele>
        <time>2020-06-06T17:12:29Z</time>
      </trkpt>
      <trkpt lat="51.215844277226" lon="4.471904666299">
        <ele>0</ele>
        <time>2020-06-06T17:12:45Z</time>
      </trkpt>
      <trkpt lat="51.215600699212" lon="4.472032574093">
        <ele>0</ele>
        <time>2020-06-06T17:12:54Z</time>
      </trkpt>
      <trkpt lat="51.215654930105" lon="4.472885516237">
        <ele>0</ele>
        <time>2020-06-06T17:13:12Z</time>
      </trkpt>
      <trkpt lat="51.215717123803" lon="4.473771063972">
        <ele>0</ele>
        <time>2020-06-06T17:13:29Z</time>
      </trkpt>
      <trkpt lat="51.215758111294" lon="4.474641859563">
        <ele>0</ele>
        <time>2020-06-06T17:13:45Z</time>
      </trkpt>
      <trkpt lat="51.215794656378" lon="4.47551047586">
        <ele>0</ele>
        <time>2020-06-06T17:14:03Z</time>
      </trkpt>
      <trkpt lat="51.215972101201" lon="4.476269373086">
        <ele>0</ele>
        <time>2020-06-06T17:14:23Z</time>
      </trkpt>
      <trkpt lat="51.215842014113" lon="4.477135307175">
        <ele>0</ele>
        <time>2020-06-06T17:14:44Z</time>
      </trkpt>
      <trkpt lat="51.215764816814" lon="4.478000570712">
        <ele>0</ele>
        <time>2020-06-06T17:15:04Z</time>
      </trkpt>
      <trkpt lat="51.215813683291" lon="4.478159826812">
        <ele>0</ele>
        <time>2020-06-06T17:15:09Z</time>
      </trkpt>
      <trkpt lat="51.21625381686" lon="4.477647944179">
        <ele>0</ele>
        <time>2020-06-06T17:15:28Z</time>
      </trkpt>
      <trkpt lat="51.216796041971" lon="4.477608130154">
        <ele>0</ele>
        <time>2020-06-06T17:15:45Z</time>
      </trkpt>
      <trkpt lat="51.217229218563" lon="4.477187526412">
        <ele>0</ele>
        <time>2020-06-06T17:16:02Z</time>
      </trkpt>
      <trkpt lat="51.217272804443" lon="4.476340786874">
        <ele>0</ele>
        <time>2020-06-06T17:16:19Z</time>
      </trkpt>
      <trkpt lat="51.217311193545" lon="4.475440403176">
        <ele>0</ele>
        <time>2020-06-06T17:16:36Z</time>
      </trkpt>
      <trkpt lat="51.21738369698" lon="4.474529961198">
        <ele>0</ele>
        <time>2020-06-06T17:16:51Z</time>
      </trkpt>
      <trkpt lat="51.217460726641" lon="4.473658411236">
        <ele>0</ele>
        <time>2020-06-06T17:17:06Z</time>
      </trkpt>
      <trkpt lat="51.217500959761" lon="4.472785352532">
        <ele>0</ele>
        <time>2020-06-06T17:17:24Z</time>
      </trkpt>
      <trkpt lat="51.217513784068" lon="4.471903995747">
        <ele>0</ele>
        <time>2020-06-06T17:17:43Z</time>
      </trkpt>
      <trkpt lat="51.217609337728" lon="4.471004785515">
        <ele>0</ele>
        <time>2020-06-06T17:17:59Z</time>
      </trkpt>
      <trkpt lat="51.217585365494" lon="4.470114543916">
        <ele>0</ele>
        <time>2020-06-06T17:18:16Z</time>
      </trkpt>
      <trkpt lat="51.217626855899" lon="4.469202593196">
        <ele>0</ele>
        <time>2020-06-06T17:18:34Z</time>
      </trkpt>
      <trkpt lat="51.217611768479" lon="4.468332971071">
        <ele>0</ele>
        <time>2020-06-06T17:18:48Z</time>
      </trkpt>
      <trkpt lat="51.217735150047" lon="4.466545530896">
        <ele>0</ele>
        <time>2020-06-06T17:19:20Z</time>
      </trkpt>
      <trkpt lat="51.217758032634" lon="4.465631736158">
        <ele>0</ele>
        <time>2020-06-06T17:19:39Z</time>
      </trkpt>
      <trkpt lat="51.217835565209" lon="4.464740740188">
        <ele>0</ele>
        <time>2020-06-06T17:19:56Z</time>
      </trkpt>
      <trkpt lat="51.217875630691" lon="4.463854940996">
        <ele>0</ele>
        <time>2020-06-06T17:20:14Z</time>
      </trkpt>
      <trkpt lat="51.217959617329" lon="4.463175336544">
        <ele>0</ele>
        <time>2020-06-06T17:20:27Z</time>
      </trkpt>
      <trkpt lat="51.218512655091" lon="4.463076933038">
        <ele>0</ele>
        <time>2020-06-06T17:20:50Z</time>
      </trkpt>
      <trkpt lat="51.219066531043" lon="4.463116327968">
        <ele>0</ele>
        <time>2020-06-06T17:21:12Z</time>
      </trkpt>
      <trkpt lat="51.219625100859" lon="4.463084392929">
        <ele>0</ele>
        <time>2020-06-06T17:21:31Z</time>
      </trkpt>
      <trkpt lat="51.219703387805" lon="4.463051535881">
        <ele>0</ele>
        <time>2020-06-06T17:21:34Z</time>
      </trkpt>
      <trkpt lat="51.220068503369" lon="4.46380179975">
        <ele>0</ele>
        <time>2020-06-06T17:21:50Z</time>
      </trkpt>
      <trkpt lat="51.220165062857" lon="4.464667398563">
        <ele>2.6</ele>
        <time>2020-06-06T17:22:05Z</time>
      </trkpt>
      <trkpt lat="51.2201396657" lon="4.465555041773">
        <ele>3.8</ele>
        <time>2020-06-06T17:22:19Z</time>
      </trkpt>
      <trkpt lat="51.220050063189" lon="4.466421814052">
        <ele>2</ele>
        <time>2020-06-06T17:22:34Z</time>
      </trkpt>
      <trkpt lat="51.220000609979" lon="4.467321108103">
        <ele>0.6</ele>
        <time>2020-06-06T17:22:50Z</time>
      </trkpt>
      <trkpt lat="51.21999801159" lon="4.468205230915">
        <ele>0</ele>
        <time>2020-06-06T17:23:05Z</time>
      </trkpt>
      <trkpt lat="51.219910672192" lon="4.468931438731">
        <ele>0</ele>
        <time>2020-06-06T17:23:19Z</time>
      </trkpt>
      <trkpt lat="51.219354700765" lon="4.468879303313">
        <ele>0</ele>
        <time>2020-06-06T17:23:37Z</time>
      </trkpt>
      <trkpt lat="51.218801998279" lon="4.468755921745">
        <ele>0</ele>
        <time>2020-06-06T17:23:55Z</time>
      </trkpt>
      <trkpt lat="51.218535286221" lon="4.468632121082">
        <ele>0</ele>
        <time>2020-06-06T17:24:07Z</time>
      </trkpt>
      <trkpt lat="51.218485497735" lon="4.468711665313">
        <ele>0</ele>
        <time>2020-06-06T17:24:14Z</time>
      </trkpt>
      <trkpt lat="51.218301598849" lon="4.46955765048">
        <ele>0</ele>
        <time>2020-06-06T17:24:32Z</time>
      </trkpt>
      <trkpt lat="51.218077299205" lon="4.470305818874">
        <ele>0</ele>
        <time>2020-06-06T17:24:50Z</time>
      </trkpt>
      <trkpt lat="51.21756893697" lon="4.47051570165">
        <ele>0</ele>
        <time>2020-06-06T17:25:10Z</time>
      </trkpt>
      <trkpt lat="51.217473802405" lon="4.469984540647">
        <ele>0</ele>
        <time>2020-06-06T17:25:23Z</time>
      </trkpt>
      <trkpt lat="51.217005254195" lon="4.46952328469">
        <ele>0</ele>
        <time>2020-06-06T17:25:41Z</time>
      </trkpt>
      <trkpt lat="51.216483648558" lon="4.469303259815">
        <ele>0</ele>
        <time>2020-06-06T17:26:02Z</time>
      </trkpt>
      <trkpt lat="51.215973526124" lon="4.468961278295">
        <ele>2.6</ele>
        <time>2020-06-06T17:26:27Z</time>
      </trkpt>
      <trkpt lat="51.215825166494" lon="4.46819642992">
        <ele>0</ele>
        <time>2020-06-06T17:26:48Z</time>
      </trkpt>
      <trkpt lat="51.215900268318" lon="4.467888562733">
        <ele>0</ele>
        <time>2020-06-06T17:26:56Z</time>
      </trkpt>
      <trkpt lat="51.215528111958" lon="4.467236199456">
        <ele>0</ele>
        <time>2020-06-06T17:27:16Z</time>
      </trkpt>
      <trkpt lat="51.215512773081" lon="4.466392393583">
        <ele>0</ele>
        <time>2020-06-06T17:27:35Z</time>
      </trkpt>
      <trkpt lat="51.215923737638" lon="4.465822172926">
        <ele>0</ele>
        <time>2020-06-06T17:27:52Z</time>
      </trkpt>
      <trkpt lat="51.21619849632" lon="4.465542133647">
        <ele>0</ele>
        <time>2020-06-06T17:28:02Z</time>
      </trkpt>
      <trkpt lat="51.216039407858" lon="4.46470872133">
        <ele>0</ele>
        <time>2020-06-06T17:28:21Z</time>
      </trkpt>
      <trkpt lat="51.21596631769" lon="4.464013442725">
        <ele>0</ele>
        <time>2020-06-06T17:28:39Z</time>
      </trkpt>
      <trkpt lat="51.215910410417" lon="4.463165445902">
        <ele>0</ele>
        <time>2020-06-06T17:28:57Z</time>
      </trkpt>
      <trkpt lat="51.215615451356" lon="4.462902757156">
        <ele>0</ele>
        <time>2020-06-06T17:29:23Z</time>
      </trkpt>
      <trkpt lat="51.215605476895" lon="4.462877862913">
        <ele>0</ele>
        <time>2020-06-06T17:29:29Z</time>
      </trkpt>
      <trkpt lat="51.215587120534" lon="4.462836456327">
        <ele>0</ele>
        <time>2020-06-06T17:29:31Z</time>
      </trkpt>
      <trkpt lat="51.215435911058" lon="4.462559183075">
        <ele>0</ele>
        <time>2020-06-06T17:29:40Z</time>
      </trkpt>
      <trkpt lat="51.215804127925" lon="4.46190665216">
        <ele>0</ele>
        <time>2020-06-06T17:29:56Z</time>
      </trkpt>
      <trkpt lat="51.216144097789" lon="4.461235848703">
        <ele>0</ele>
        <time>2020-06-06T17:30:17Z</time>
      </trkpt>
      <trkpt lat="51.216520193642" lon="4.460572672775">
        <ele>0</ele>
        <time>2020-06-06T17:30:35Z</time>
      </trkpt>
      <trkpt lat="51.216895702762" lon="4.459936654203">
        <ele>0</ele>
        <time>2020-06-06T17:30:51Z</time>
      </trkpt>
      <trkpt lat="51.217246988191" lon="4.459245147453">
        <ele>0</ele>
        <time>2020-06-06T17:31:09Z</time>
      </trkpt>
      <trkpt lat="51.217567009133" lon="4.458525309881">
        <ele>0</ele>
        <time>2020-06-06T17:31:25Z</time>
      </trkpt>
      <trkpt lat="51.217922234055" lon="4.45784897437">
        <ele>0</ele>
        <time>2020-06-06T17:31:42Z</time>
      </trkpt>
      <trkpt lat="51.218198333841" lon="4.457061746322">
        <ele>0</ele>
        <time>2020-06-06T17:32:02Z</time>
      </trkpt>
      <trkpt lat="51.218665540947" lon="4.456551120974">
        <ele>0</ele>
        <time>2020-06-06T17:32:19Z</time>
      </trkpt>
      <trkpt lat="51.219063513559" lon="4.455931530926">
        <ele>0</ele>
        <time>2020-06-06T17:32:37Z</time>
      </trkpt>
      <trkpt lat="51.219573384536" lon="4.455584268809">
        <ele>0</ele>
        <time>2020-06-06T17:32:52Z</time>
      </trkpt>
      <trkpt lat="51.219691066412" lon="4.454968869711">
        <ele>0</ele>
        <time>2020-06-06T17:33:09Z</time>
      </trkpt>
      <trkpt lat="51.219566762835" lon="4.454129422426">
        <ele>0</ele>
        <time>2020-06-06T17:33:27Z</time>
      </trkpt>
      <trkpt lat="51.2193685309" lon="4.45379297296">
        <ele>0</ele>
        <time>2020-06-06T17:33:37Z</time>
      </trkpt>
      <trkpt lat="51.219370794013" lon="4.4537896202">
        <ele>0</ele>
        <time>2020-06-06T17:33:46Z</time>
      </trkpt>
      <trkpt lat="51.219370877832" lon="4.453789452562">
        <ele>0</ele>
        <time>2020-06-06T17:33:48Z</time>
      </trkpt>
      <trkpt lat="51.219382025759" lon="4.453780483929">
        <ele>0</ele>
        <time>2020-06-06T17:33:51Z</time>
      </trkpt>
      <trkpt lat="51.219473891383" lon="4.453662131501">
        <ele>0</ele>
        <time>2020-06-06T17:33:57Z</time>
      </trkpt>
      <trkpt lat="51.219274569801" lon="4.453132563059">
        <ele>0</ele>
        <time>2020-06-06T17:34:10Z</time>
      </trkpt>
      <trkpt lat="51.218992937961" lon="4.452403002483">
        <ele>0</ele>
        <time>2020-06-06T17:34:30Z</time>
      </trkpt>
      <trkpt lat="51.219400968853" lon="4.452007376803">
        <ele>0</ele>
        <time>2020-06-06T17:34:48Z</time>
      </trkpt>
      <trkpt lat="51.219945624715" lon="4.451949457874">
        <ele>0</ele>
        <time>2020-06-06T17:35:10Z</time>
      </trkpt>
      <trkpt lat="51.220492124595" lon="4.451831021627">
        <ele>0</ele>
        <time>2020-06-06T17:35:29Z</time>
      </trkpt>
      <trkpt lat="51.221031416041" lon="4.451699593435">
        <ele>0</ele>
        <time>2020-06-06T17:35:43Z</time>
      </trkpt>
      <trkpt lat="51.221599289766" lon="4.451518460576">
        <ele>0</ele>
        <time>2020-06-06T17:35:59Z</time>
      </trkpt>
      <trkpt lat="51.221639690524" lon="4.451482502225">
        <ele>0</ele>
        <time>2020-06-06T17:36:00Z</time>
      </trkpt>
      <trkpt lat="51.222148304216" lon="4.451108166571">
        <ele>0</ele>
        <time>2020-06-06T17:36:12Z</time>
      </trkpt>
      <trkpt lat="51.222680471047" lon="4.451028873797">
        <ele>0</ele>
        <time>2020-06-06T17:36:26Z</time>
      </trkpt>
      <trkpt lat="51.223232838257" lon="4.451144627836">
        <ele>0</ele>
        <time>2020-06-06T17:36:41Z</time>
      </trkpt>
      <trkpt lat="51.223491084596" lon="4.451235068537">
        <ele>0</ele>
        <time>2020-06-06T17:36:48Z</time>
      </trkpt>
      <trkpt lat="51.223932391631" lon="4.451758350554">
        <ele>0</ele>
        <time>2020-06-06T17:37:03Z</time>
      </trkpt>
      <trkpt lat="51.224468749412" lon="4.452018608549">
        <ele>0</ele>
        <time>2020-06-06T17:37:19Z</time>
      </trkpt>
      <trkpt lat="51.225009633419" lon="4.452133189122">
        <ele>0</ele>
        <time>2020-06-06T17:37:35Z</time>
      </trkpt>
      <trkpt lat="51.225063948131" lon="4.452096308762">
        <ele>0</ele>
        <time>2020-06-06T17:37:37Z</time>
      </trkpt>
      <trkpt lat="51.225316662416" lon="4.451301704642">
        <ele>0</ele>
        <time>2020-06-06T17:37:53Z</time>
      </trkpt>
      <trkpt lat="51.225660907049" lon="4.450639618361">
        <ele>0</ele>
        <time>2020-06-06T17:38:12Z</time>
      </trkpt>
      <trkpt lat="51.226052760874" lon="4.450038217036">
        <ele>0</ele>
        <time>2020-06-06T17:38:30Z</time>
      </trkpt>
      <trkpt lat="51.226436484256" lon="4.449424410499">
        <ele>0</ele>
        <time>2020-06-06T17:38:50Z</time>
      </trkpt>
      <trkpt lat="51.226886759924" lon="4.44892895639">
        <ele>0</ele>
        <time>2020-06-06T17:39:09Z</time>
      </trkpt>
      <trkpt lat="51.227285738364" lon="4.448329231445">
        <ele>0</ele>
        <time>2020-06-06T17:39:28Z</time>
      </trkpt>
      <trkpt lat="51.227733248005" lon="4.447756999132">
        <ele>0</ele>
        <time>2020-06-06T17:39:45Z</time>
      </trkpt>
      <trkpt lat="51.228106326374" lon="4.447128440451">
        <ele>0</ele>
        <time>2020-06-06T17:40:01Z</time>
      </trkpt>
      <trkpt lat="51.228481248761" lon="4.44649652901">
        <ele>0</ele>
        <time>2020-06-06T17:40:17Z</time>
      </trkpt>
      <trkpt lat="51.228882741771" lon="4.445894624771">
        <ele>0</ele>
        <time>2020-06-06T17:40:37Z</time>
      </trkpt>
      <trkpt lat="51.22929102412" lon="4.44528702084">
        <ele>0</ele>
        <time>2020-06-06T17:40:55Z</time>
      </trkpt>
      <trkpt lat="51.229689499646" lon="4.444753009991">
        <ele>0</ele>
        <time>2020-06-06T17:41:11Z</time>
      </trkpt>
      <trkpt lat="51.229711544043" lon="4.444793410749">
        <ele>0</ele>
        <time>2020-06-06T17:41:13Z</time>
      </trkpt>
      <trkpt lat="51.229987895286" lon="4.445581309349">
        <ele>0</ele>
        <time>2020-06-06T17:41:30Z</time>
      </trkpt>
      <trkpt lat="51.230234993698" lon="4.446355880728">
        <ele>0</ele>
        <time>2020-06-06T17:41:46Z</time>
      </trkpt>
      <trkpt lat="51.230583932195" lon="4.447094242299">
        <ele>20.8</ele>
        <time>2020-06-06T17:42:00Z</time>
      </trkpt>
      <trkpt lat="51.230845782751" lon="4.447910806997">
        <ele>25.2</ele>
        <time>2020-06-06T17:42:14Z</time>
      </trkpt>
      <trkpt lat="51.230979809332" lon="4.448755199603">
        <ele>15.2</ele>
        <time>2020-06-06T17:42:28Z</time>
      </trkpt>
      <trkpt lat="51.231214083437" lon="4.449539745443">
        <ele>22.8</ele>
        <time>2020-06-06T17:42:41Z</time>
      </trkpt>
      <trkpt lat="51.231346349819" lon="4.450407775007">
        <ele>18.2</ele>
        <time>2020-06-06T17:42:54Z</time>
      </trkpt>
      <trkpt lat="51.231313157495" lon="4.450525540702">
        <ele>17.8</ele>
        <time>2020-06-06T17:42:56Z</time>
      </trkpt>
      <trkpt lat="51.230768920728" lon="4.450732908908">
        <ele>19.4</ele>
        <time>2020-06-06T17:43:09Z</time>
      </trkpt>
      <trkpt lat="51.230084622412" lon="4.45087020443">
        <ele>2.6</ele>
        <time>2020-06-06T17:43:35Z</time>
      </trkpt>
      <trkpt lat="51.229730822413" lon="4.450874143923">
        <ele>1.8</ele>
        <time>2020-06-06T17:43:46Z</time>
      </trkpt>
      <trkpt lat="51.229574499978" lon="4.450052298628">
        <ele>0</ele>
        <time>2020-06-06T17:44:05Z</time>
      </trkpt>
      <trkpt lat="51.229409041272" lon="4.449222239071">
        <ele>0</ele>
        <time>2020-06-06T17:44:20Z</time>
      </trkpt>
      <trkpt lat="51.229131684201" lon="4.448497456178">
        <ele>0</ele>
        <time>2020-06-06T17:44:36Z</time>
      </trkpt>
      <trkpt lat="51.229025485528" lon="4.448415565015">
        <ele>0</ele>
        <time>2020-06-06T17:44:43Z</time>
      </trkpt>
      <trkpt lat="51.228952227722" lon="4.44859535677">
        <ele>0</ele>
        <time>2020-06-06T17:44:48Z</time>
      </trkpt>
      <trkpt lat="51.228986342055" lon="4.448597200788">
        <ele>0</ele>
        <time>2020-06-06T17:45:24Z</time>
      </trkpt>
      <trkpt lat="51.228970081169" lon="4.448615389511">
        <ele>0</ele>
        <time>2020-06-06T17:45:26Z</time>
      </trkpt>
      <trkpt lat="51.228573617299" lon="4.449232464989">
        <ele>1</ele>
        <time>2020-06-06T17:45:42Z</time>
      </trkpt>
      <trkpt lat="51.228529444686" lon="4.449297424714">
        <ele>0</ele>
        <time>2020-06-06T17:45:51Z</time>
      </trkpt>
    </trkseg>
  </trk>
</gpx>